createdAt,value
2018-09-26T09:34:53.273Z,13.43
2018-09-26T09:37:21.951Z,13.42
2018-09-26T09:39:57.195Z,13.43
2018-09-26T09:42:25.933Z,13.50
2018-09-26T09:44:54.678Z,13.61
2018-09-26T09:47:23.526Z,13.68
2018-09-26T09:49:52.234Z,13.68
2018-09-26T09:52:20.886Z,13.67
2018-09-26T09:54:49.570Z,13.84
2018-09-26T09:57:18.385Z,13.83
2018-09-26T09:59:47.101Z,13.75
2018-09-26T10:02:27.986Z,13.96
2018-09-26T10:04:56.758Z,14.18
2018-09-26T10:07:25.730Z,14.16
2018-09-26T10:09:54.413Z,14.22
2018-09-26T10:12:23.184Z,14.34
2018-09-26T10:14:51.839Z,14.57
2018-09-26T10:17:20.604Z,14.74
2018-09-26T10:19:49.290Z,14.76
2018-09-26T10:22:18.186Z,14.83
2018-09-26T10:24:47.062Z,15.01
2018-09-26T10:27:15.734Z,15.06
2018-09-26T10:29:44.647Z,14.99
2018-09-26T10:32:13.557Z,15.02
2018-09-26T10:34:42.391Z,14.99
2018-09-26T10:37:11.197Z,15.06
2018-09-26T10:39:39.837Z,15.14
2018-09-26T10:42:08.514Z,15.27
2018-09-26T10:44:37.214Z,15.26
2018-09-26T10:47:05.905Z,15.23
2018-09-26T10:49:34.616Z,15.24
2018-09-26T10:52:14.075Z,15.11
2018-09-26T10:54:43.002Z,15.25
2018-09-26T10:57:34.849Z,15.21
2018-09-26T11:00:04.829Z,15.26
2018-09-26T11:02:33.551Z,15.33
2018-09-26T11:05:06.931Z,15.37
2018-09-26T11:07:35.717Z,15.37
2018-09-26T11:10:04.479Z,15.25
2018-09-26T11:12:33.190Z,15.42
2018-09-26T11:15:01.979Z,15.50
2018-09-26T11:17:30.865Z,15.64
2018-09-26T11:19:59.633Z,15.93
2018-09-26T11:22:28.301Z,15.82
2018-09-26T11:24:57.118Z,16.19
2018-09-26T11:27:25.802Z,16.26
2018-09-26T11:29:54.575Z,16.70
2018-09-26T11:32:23.366Z,16.76
2018-09-26T11:34:52.049Z,17.00
2018-09-26T11:37:20.871Z,17.10
2018-09-26T11:39:49.566Z,17.28
2018-09-26T11:42:18.213Z,17.44
2018-09-26T11:44:46.988Z,17.21
2018-09-26T11:47:15.699Z,17.70
2018-09-26T11:49:44.400Z,18.19
2018-09-26T11:52:13.493Z,18.53
2018-09-26T11:55:03.908Z,18.69
2018-09-26T11:57:33.093Z,18.94
2018-09-26T12:00:01.853Z,19.37
2018-09-26T12:02:30.655Z,19.50
2018-09-26T12:04:59.220Z,19.93
2018-09-26T12:07:27.961Z,18.65
2018-09-26T12:09:57.021Z,18.12
2018-09-26T12:12:25.867Z,18.66
2018-09-26T12:14:54.597Z,19.10
2018-09-26T12:17:23.508Z,19.99
2018-09-26T12:19:55.686Z,20.50
2018-09-26T12:22:24.460Z,21.55
2018-09-26T12:24:53.222Z,22.13
2018-09-26T12:27:21.971Z,22.40
2018-09-26T12:29:50.974Z,22.00
2018-09-26T12:32:19.726Z,22.03
2018-09-26T12:34:48.865Z,23.31
2018-09-26T12:37:17.603Z,24.03
2018-09-26T12:39:46.265Z,24.17
2018-09-26T12:42:15.043Z,24.40
2018-09-26T12:44:43.882Z,23.73
2018-09-26T12:47:12.669Z,24.48
2018-09-26T12:49:41.666Z,25.44
2018-09-26T12:52:10.686Z,26.05
2018-09-26T12:54:39.408Z,26.26
2018-09-26T12:57:08.473Z,24.52
2018-09-26T12:59:37.183Z,25.50
2018-09-26T13:02:06.137Z,25.84
2018-09-26T13:04:35.068Z,25.67
2018-09-26T13:07:04.043Z,25.15
2018-09-26T13:12:33.658Z,23.69
2018-09-26T13:15:02.760Z,23.73
2018-09-26T13:17:31.510Z,24.11
2018-09-26T13:20:00.410Z,23.49
2018-09-26T13:22:29.239Z,24.71
2018-09-26T13:24:58.002Z,24.75
2018-09-26T13:27:26.871Z,24.54
2018-09-26T13:30:02.541Z,25.46
2018-09-26T13:32:31.638Z,26.21
2018-09-26T13:35:00.330Z,25.88
2018-09-26T13:37:29.167Z,26.80
2018-09-26T13:39:57.957Z,22.47
2018-09-26T13:42:26.892Z,23.93
2018-09-26T13:44:55.612Z,22.45
2018-09-26T13:47:40.698Z,23.12
2018-09-26T13:50:10.294Z,22.24
2018-09-26T13:52:39.088Z,22.59
2018-09-26T13:55:08.984Z,23.30
2018-09-26T13:57:48.173Z,23.44
2018-09-26T14:00:17.676Z,23.15
2018-09-26T14:02:47.219Z,23.17
2018-09-26T14:05:16.078Z,22.70
2018-09-26T14:07:45.500Z,22.07
2018-09-26T14:10:14.693Z,21.56
2018-09-26T14:12:44.063Z,21.31
2018-09-26T14:15:12.898Z,21.05
2018-09-26T14:17:42.007Z,19.58
2018-09-26T14:20:10.952Z,19.69
2018-09-26T14:22:39.731Z,19.69
2018-09-26T14:25:08.442Z,19.52
2018-09-26T14:27:37.793Z,19.04
2018-09-26T14:30:07.364Z,19.14
2018-09-26T14:32:49.275Z,19.63
2018-09-26T14:35:18.726Z,19.07
2018-09-26T14:37:47.980Z,18.84
2018-09-26T14:40:17.389Z,19.10
2018-09-26T14:42:46.868Z,19.17
2018-09-26T14:45:16.278Z,18.94
2018-09-26T14:47:45.819Z,18.95
2018-09-26T14:50:14.631Z,19.09
2018-09-26T14:52:43.419Z,19.49
2018-09-26T14:55:12.598Z,19.63
2018-09-26T14:57:41.484Z,19.43
2018-09-26T15:00:10.339Z,19.51
2018-09-26T15:05:32.470Z,19.26
2018-09-26T15:08:01.559Z,18.86
2018-09-26T15:10:30.343Z,19.14
2018-09-26T15:12:59.100Z,19.04
2018-09-26T15:15:28.042Z,18.94
2018-09-26T15:18:02.358Z,18.88
2018-09-26T15:20:31.631Z,19.10
2018-09-26T15:23:01.323Z,19.33
2018-09-26T15:25:30.102Z,19.56
2018-09-26T15:27:59.670Z,19.24
2018-09-26T15:30:28.601Z,19.14
2018-09-26T15:32:57.460Z,19.18
2018-09-26T15:35:26.349Z,19.09
2018-09-26T15:37:55.109Z,19.12
2018-09-26T15:40:24.083Z,18.97
2018-09-26T15:42:52.963Z,18.92
2018-09-26T15:45:21.706Z,18.83
2018-09-26T15:47:50.660Z,18.67
2018-09-26T15:50:19.493Z,18.41
2018-09-26T15:52:50.317Z,18.48
2018-09-26T15:55:19.102Z,18.50
2018-09-26T15:57:47.971Z,18.50
2018-09-26T16:00:17.059Z,18.57
2018-09-26T16:02:46.161Z,18.50
2018-09-26T16:05:15.097Z,18.57
2018-09-26T16:07:44.055Z,18.54
2018-09-26T16:10:13.031Z,18.34
2018-09-26T16:12:41.833Z,18.33
2018-09-26T16:15:11.021Z,18.27
2018-09-26T16:17:40.041Z,18.20
2018-09-26T16:20:08.969Z,18.10
2018-09-26T16:22:38.214Z,18.12
2018-09-26T16:25:07.686Z,17.96
2018-09-26T16:27:36.449Z,17.92
2018-09-26T16:30:05.930Z,17.83
2018-09-26T16:32:34.972Z,17.77
2018-09-26T16:35:03.781Z,17.68
2018-09-26T16:37:32.529Z,17.58
2018-09-26T16:40:01.486Z,17.47
2018-09-26T16:42:30.372Z,17.37
2018-09-26T16:44:59.316Z,17.22
2018-09-26T16:47:28.335Z,17.08
2018-09-26T16:49:57.349Z,16.94
2018-09-26T16:52:26.169Z,16.83
2018-09-26T16:54:55.122Z,16.72
2018-09-26T16:57:23.921Z,16.58
2018-09-26T16:59:52.680Z,16.51
2018-09-26T17:02:21.683Z,16.40
2018-09-26T17:04:50.597Z,16.29
2018-09-26T17:07:19.388Z,16.23
2018-09-26T17:09:48.511Z,16.18
2018-09-26T17:12:17.504Z,16.11
2018-09-26T17:14:46.470Z,16.03
2018-09-26T17:17:15.706Z,15.93
2018-09-26T17:19:44.515Z,15.79
2018-09-26T17:22:13.465Z,15.69
2018-09-26T17:24:42.407Z,15.59
2018-09-26T17:27:11.507Z,15.50
2018-09-26T17:29:40.306Z,15.45
2018-09-26T17:32:09.281Z,15.40
2018-09-26T17:34:38.181Z,15.30
2018-09-26T17:37:06.961Z,15.26
2018-09-26T17:39:35.808Z,15.16
2018-09-26T17:42:04.657Z,14.99
2018-09-26T17:44:33.420Z,14.90
2018-09-26T17:47:02.339Z,14.94
2018-09-26T17:49:31.081Z,14.89
2018-09-26T17:52:00.113Z,14.68
2018-09-26T17:54:29.130Z,14.55
2018-09-26T17:56:58.047Z,14.46
2018-09-26T17:59:26.809Z,14.37
2018-09-26T18:01:55.978Z,14.34
2018-09-26T18:04:25.063Z,14.41
2018-09-26T18:06:53.991Z,14.30
2018-09-26T18:09:22.890Z,14.13
2018-09-26T18:11:52.175Z,14.08
2018-09-26T18:14:20.932Z,14.00
2018-09-26T18:16:49.962Z,13.94
2018-09-26T18:19:18.767Z,13.86
2018-09-26T18:21:47.846Z,13.72
2018-09-26T18:24:16.752Z,13.62
2018-09-26T18:26:45.544Z,13.62
2018-09-26T18:29:14.338Z,13.55
2018-09-26T18:31:43.160Z,13.47
2018-09-26T18:34:12.128Z,13.37
2018-09-26T18:36:41.103Z,13.31
2018-09-26T18:39:11.151Z,13.23
2018-09-26T18:41:39.990Z,13.13
2018-09-26T18:44:08.694Z,13.05
2018-09-26T18:46:37.487Z,13.02
2018-09-26T18:49:06.207Z,12.94
2018-09-26T18:51:35.086Z,12.85
2018-09-26T18:54:04.059Z,12.75
2018-09-26T18:56:32.801Z,12.72
2018-09-26T18:59:02.029Z,12.66
2018-09-26T19:01:31.163Z,12.60
2018-09-26T19:04:00.110Z,12.62
2018-09-26T19:06:28.999Z,12.65
2018-09-26T19:08:58.077Z,12.63
2018-09-26T19:11:26.871Z,12.60
2018-09-26T19:13:55.815Z,12.57
2018-09-26T19:16:24.607Z,12.50
2018-09-26T19:18:53.463Z,12.43
2018-09-26T19:21:22.354Z,12.37
2018-09-26T19:23:51.376Z,12.31
2018-09-26T19:26:20.353Z,12.25
2018-09-26T19:28:49.527Z,12.21
2018-09-26T19:31:18.408Z,12.13
2018-09-26T19:33:47.422Z,12.12
2018-09-26T19:36:16.208Z,12.06
2018-09-26T19:38:45.083Z,12.04
2018-09-26T19:41:14.260Z,11.96
2018-09-26T19:43:43.555Z,11.95
2018-09-26T19:46:12.291Z,11.91
2018-09-26T19:48:41.397Z,11.81
2018-09-26T19:51:10.554Z,11.82
2018-09-26T19:53:39.518Z,11.75
2018-09-26T19:56:08.528Z,11.72
2018-09-26T19:58:37.608Z,11.69
2018-09-26T20:01:06.639Z,11.66
2018-09-26T20:03:35.467Z,11.64
2018-09-26T20:06:04.350Z,11.58
2018-09-26T20:08:33.766Z,11.56
2018-09-26T20:11:02.606Z,11.50
2018-09-26T20:13:31.466Z,11.40
2018-09-26T20:16:00.339Z,11.32
2018-09-26T20:18:29.254Z,11.28
2018-09-26T20:20:58.073Z,11.27
2018-09-26T20:23:26.904Z,11.13
2018-09-26T20:25:55.952Z,11.03
2018-09-26T20:28:24.804Z,10.96
2018-09-26T20:30:53.651Z,10.96
2018-09-26T20:33:22.624Z,10.97
2018-09-26T20:35:51.481Z,10.93
2018-09-26T20:38:20.343Z,10.90
2018-09-26T20:40:49.260Z,10.88
2018-09-26T20:43:18.135Z,10.86
2018-09-26T20:45:46.950Z,10.81
2018-09-26T20:48:15.900Z,10.81
2018-09-26T20:50:44.679Z,10.78
2018-09-26T20:53:14.024Z,10.77
2018-09-26T20:55:42.834Z,10.75
2018-09-26T20:58:11.575Z,10.71
2018-09-26T21:00:40.545Z,10.62
2018-09-26T21:03:09.210Z,10.57
2018-09-26T21:05:38.267Z,10.51
2018-09-26T21:08:06.950Z,10.45
2018-09-26T21:10:35.847Z,10.52
2018-09-26T21:13:04.942Z,10.50
2018-09-26T21:15:33.747Z,10.42
2018-09-26T21:18:02.531Z,10.41
2018-09-26T21:20:31.550Z,10.41
2018-09-26T21:23:00.382Z,10.37
2018-09-26T21:25:29.399Z,10.27
2018-09-26T21:27:58.319Z,10.28
2018-09-26T21:30:27.051Z,10.21
2018-09-26T21:32:55.982Z,10.18
2018-09-26T21:35:24.731Z,10.26
2018-09-26T21:37:53.581Z,10.29
2018-09-26T21:40:22.543Z,10.18
2018-09-26T21:42:51.291Z,10.27
2018-09-26T21:45:20.162Z,10.27
2018-09-26T21:47:49.089Z,10.31
2018-09-26T21:50:18.054Z,10.27
2018-09-26T21:52:46.994Z,10.23
2018-09-26T21:55:15.778Z,10.21
2018-09-26T21:57:44.784Z,10.20
2018-09-26T22:00:13.678Z,10.19
2018-09-26T22:02:42.442Z,10.13
2018-09-26T22:05:11.301Z,10.15
2018-09-26T22:07:40.154Z,10.15
2018-09-26T22:10:09.029Z,10.12
2018-09-26T22:12:37.778Z,10.07
2018-09-26T22:15:10.906Z,10.01
2018-09-26T22:17:39.562Z,10.02
2018-09-26T22:20:08.282Z,9.90
2018-09-26T22:22:37.600Z,9.83
2018-09-26T22:25:06.482Z,9.77
2018-09-26T22:27:35.245Z,9.79
2018-09-26T22:30:04.574Z,9.87
2018-09-26T22:32:33.487Z,9.78
2018-09-26T22:35:02.188Z,9.64
2018-09-26T22:37:31.022Z,9.66
2018-09-26T22:40:00.723Z,9.65
2018-09-26T22:42:29.570Z,9.64
2018-09-26T22:44:58.522Z,9.61
2018-09-26T22:47:27.269Z,9.55
2018-09-26T22:49:56.198Z,9.49
2018-09-26T22:52:24.963Z,9.48
2018-09-26T22:54:53.811Z,9.49
2018-09-26T22:57:22.473Z,9.45
2018-09-26T22:59:51.129Z,9.40
2018-09-26T23:02:19.942Z,9.37
2018-09-26T23:04:48.653Z,9.37
2018-09-26T23:07:17.610Z,9.37
2018-09-26T23:09:46.405Z,9.36
2018-09-26T23:12:15.122Z,9.34
2018-09-26T23:14:43.933Z,9.33
2018-09-26T23:17:12.621Z,9.34
2018-09-26T23:19:41.526Z,9.21
2018-09-26T23:22:10.196Z,9.11
2018-09-26T23:24:38.930Z,9.02
2018-09-26T23:27:07.701Z,9.06
2018-09-26T23:29:36.716Z,9.09
2018-09-26T23:32:05.568Z,9.11
2018-09-26T23:34:34.337Z,9.10
2018-09-26T23:37:03.025Z,9.09
2018-09-26T23:39:31.766Z,9.07
2018-09-26T23:42:00.561Z,9.04
2018-09-26T23:44:29.494Z,9.06
2018-09-26T23:46:58.338Z,9.09
2018-09-26T23:49:27.122Z,9.10
2018-09-26T23:51:55.878Z,9.04
2018-09-26T23:54:24.754Z,9.01
2018-09-26T23:56:53.722Z,8.99
2018-09-26T23:59:22.429Z,8.97
